createdAt,value
2022-09-03T00:00:45.675Z,17.86
2022-09-03T00:01:45.735Z,17.87
2022-09-03T00:02:45.838Z,17.90
2022-09-03T00:03:45.546Z,17.84
2022-09-03T00:04:45.504Z,17.88
2022-09-03T00:05:45.459Z,17.82
2022-09-03T00:06:45.414Z,17.84
2022-09-03T00:07:45.371Z,17.82
2022-09-03T00:08:45.327Z,17.79
2022-09-03T00:09:45.285Z,17.86
2022-09-03T00:10:45.239Z,17.79
2022-09-03T00:11:45.202Z,17.79
2022-09-03T00:12:45.153Z,17.80
2022-09-03T00:13:45.112Z,17.80
2022-09-03T00:14:45.068Z,17.78
2022-09-03T00:15:45.091Z,17.73
2022-09-03T00:16:44.986Z,17.75
2022-09-03T00:17:44.942Z,17.78
2022-09-03T00:18:44.895Z,17.75
2022-09-03T00:19:44.863Z,17.76
2022-09-03T00:20:44.815Z,17.71
2022-09-03T00:21:44.787Z,17.71
2022-09-03T00:22:44.725Z,17.76
2022-09-03T00:23:44.682Z,17.75
2022-09-03T00:24:44.644Z,17.71
2022-09-03T00:25:44.597Z,17.72
2022-09-03T00:26:44.548Z,17.63
2022-09-03T00:27:44.507Z,17.71
2022-09-03T00:28:44.462Z,17.69
2022-09-03T00:29:44.420Z,17.66
2022-09-03T00:30:44.380Z,17.65
2022-09-03T00:31:44.339Z,17.72
2022-09-03T00:32:44.292Z,17.69
2022-09-03T00:33:44.249Z,17.66
2022-09-03T00:34:44.206Z,17.59
2022-09-03T00:35:44.162Z,17.65
2022-09-03T00:36:44.119Z,17.60
2022-09-03T00:37:44.075Z,17.71
2022-09-03T00:38:44.032Z,17.66
2022-09-03T00:39:44.046Z,17.56
2022-09-03T00:40:43.950Z,17.54
2022-09-03T00:41:43.905Z,17.56
2022-09-03T00:42:44.063Z,17.54
2022-09-03T00:43:43.818Z,17.54
2022-09-03T00:44:43.772Z,17.53
2022-09-03T00:45:43.732Z,17.54
2022-09-03T00:46:43.742Z,17.63
2022-09-03T00:47:43.645Z,17.57
2022-09-03T00:48:43.600Z,17.52
2022-09-03T00:49:43.558Z,17.47
2022-09-03T00:50:43.517Z,17.46
2022-09-03T00:51:43.471Z,17.46
2022-09-03T00:52:43.427Z,17.53
2022-09-03T00:53:43.384Z,17.54
2022-09-03T00:54:43.340Z,17.42
2022-09-03T00:55:43.306Z,17.42
2022-09-03T00:56:43.260Z,17.38
2022-09-03T00:57:43.210Z,17.39
2022-09-03T00:58:43.174Z,17.35
2022-09-03T00:59:43.128Z,17.37
2022-09-03T01:00:43.080Z,17.20
2022-09-03T01:01:43.170Z,17.30
2022-09-03T01:02:43.165Z,17.38
2022-09-03T01:03:42.956Z,17.32
2022-09-03T01:04:42.908Z,17.35
2022-09-03T01:05:42.866Z,17.28
2022-09-03T01:06:42.821Z,17.23
2022-09-03T01:07:42.779Z,17.22
2022-09-03T01:08:44.036Z,17.22
2022-09-03T01:09:42.693Z,17.20
2022-09-03T01:10:42.650Z,17.17
2022-09-03T01:11:42.606Z,17.10
2022-09-03T01:12:42.563Z,17.13
2022-09-03T01:13:42.521Z,17.07
2022-09-03T01:14:42.475Z,17.13
2022-09-03T01:15:42.545Z,17.05
2022-09-03T01:16:42.390Z,17.07
2022-09-03T01:17:42.346Z,17.05
2022-09-03T01:18:42.300Z,16.97
2022-09-03T01:19:42.259Z,16.87
2022-09-03T01:20:42.216Z,16.98
2022-09-03T01:21:42.174Z,16.91
2022-09-03T01:22:42.128Z,16.91
2022-09-03T01:23:42.085Z,16.84
2022-09-03T01:24:42.043Z,16.82
2022-09-03T01:25:42.001Z,16.79
2022-09-03T01:26:41.955Z,16.84
2022-09-03T01:27:41.911Z,16.76
2022-09-03T01:28:41.868Z,16.77
2022-09-03T01:29:41.823Z,16.80
2022-09-03T01:30:41.837Z,16.69
2022-09-03T01:31:41.736Z,16.73
2022-09-03T01:32:41.694Z,16.69
2022-09-03T01:33:41.655Z,16.65
2022-09-03T01:34:41.607Z,16.64
2022-09-03T01:35:41.562Z,16.59
2022-09-03T01:36:41.518Z,16.64
2022-09-03T01:37:41.477Z,16.57
2022-09-03T01:38:41.430Z,16.54
2022-09-03T01:39:41.449Z,16.44
2022-09-03T01:40:41.347Z,16.51
2022-09-03T01:41:41.305Z,16.51
2022-09-03T01:42:41.257Z,16.54
2022-09-03T01:43:45.250Z,16.46
2022-09-03T01:44:41.170Z,16.49
2022-09-03T01:45:51.191Z,16.43
2022-09-03T01:46:41.241Z,16.41
2022-09-03T01:47:41.040Z,16.39
2022-09-03T01:48:40.993Z,16.34
2022-09-03T01:49:40.952Z,16.34
2022-09-03T01:50:40.908Z,16.37
2022-09-03T01:51:40.870Z,16.39
2022-09-03T01:52:41.024Z,16.25
2022-09-03T01:53:40.777Z,16.25
2022-09-03T01:54:40.735Z,16.29
2022-09-03T01:55:40.696Z,16.31
2022-09-03T01:56:40.648Z,16.25
2022-09-03T01:57:42.078Z,16.24
2022-09-03T01:58:40.563Z,16.13
2022-09-03T01:59:40.518Z,16.12
2022-09-03T02:00:40.469Z,16.22
2022-09-03T02:01:40.505Z,16.22
2022-09-03T02:02:40.484Z,16.18
2022-09-03T02:03:40.784Z,16.18
2022-09-03T02:04:40.297Z,16.10
2022-09-03T02:05:40.258Z,16.10
2022-09-03T02:06:40.208Z,16.13
2022-09-03T02:07:40.168Z,16.08
2022-09-03T02:08:40.123Z,16.05
2022-09-03T02:09:40.083Z,16.00
2022-09-03T02:11:39.990Z,15.96
2022-09-03T02:12:39.951Z,15.96
2022-09-03T02:13:39.901Z,15.94
2022-09-03T02:14:39.858Z,15.92
2022-09-03T02:15:39.928Z,15.87
2022-09-03T02:16:39.771Z,15.91
2022-09-03T02:17:39.729Z,15.87
2022-09-03T02:18:39.683Z,15.83
2022-09-03T02:19:39.640Z,15.88
2022-09-03T02:20:39.615Z,15.83
2022-09-03T02:21:39.554Z,15.80
2022-09-03T02:22:39.510Z,15.78
2022-09-03T02:23:39.462Z,15.78
2022-09-03T02:24:39.421Z,15.80
2022-09-03T02:25:39.375Z,15.75
2022-09-03T02:26:39.332Z,15.66
2022-09-03T02:27:39.291Z,15.81
2022-09-03T02:28:39.244Z,15.70
2022-09-03T02:29:39.204Z,15.75
2022-09-03T02:30:39.199Z,15.76
2022-09-03T02:31:39.112Z,15.72
2022-09-03T02:32:39.072Z,15.69
2022-09-03T02:33:39.021Z,15.70
2022-09-03T02:34:38.987Z,15.67
2022-09-03T02:35:38.936Z,15.65
2022-09-03T02:36:38.910Z,15.62
2022-09-03T02:37:38.875Z,15.70
2022-09-03T02:38:38.805Z,15.55
2022-09-03T02:39:39.514Z,15.63
2022-09-03T02:40:38.717Z,15.60
2022-09-03T02:41:38.671Z,15.60
2022-09-03T02:42:38.638Z,15.62
2022-09-03T02:43:38.585Z,15.57
2022-09-03T02:44:38.542Z,15.65
2022-09-03T02:45:38.616Z,15.65
2022-09-03T02:46:38.456Z,15.62
2022-09-03T02:47:38.407Z,15.60
2022-09-03T02:48:38.366Z,15.60
2022-09-03T02:49:38.324Z,15.59
2022-09-03T02:50:38.279Z,15.57
2022-09-03T02:51:38.232Z,15.60
2022-09-03T02:52:38.194Z,15.62
2022-09-03T02:53:38.143Z,15.52
2022-09-03T02:54:38.101Z,15.51
2022-09-03T02:55:38.056Z,15.63
2022-09-03T02:56:38.015Z,15.57
2022-09-03T02:57:37.969Z,15.54
2022-09-03T02:58:37.929Z,15.63
2022-09-03T02:59:37.884Z,15.60
2022-09-03T03:00:37.838Z,15.60
2022-09-03T03:01:37.893Z,15.57
2022-09-03T03:02:37.844Z,15.50
2022-09-03T03:03:37.704Z,15.51
2022-09-03T03:04:37.661Z,15.52
2022-09-03T03:05:37.616Z,15.45
2022-09-03T03:06:37.576Z,15.52
2022-09-03T03:07:37.526Z,15.48
2022-09-03T03:08:37.492Z,15.47
2022-09-03T03:09:37.439Z,15.47
2022-09-03T03:10:37.396Z,15.50
2022-09-03T03:11:37.355Z,15.47
2022-09-03T03:12:37.309Z,15.52
2022-09-03T03:13:37.262Z,15.45
2022-09-03T03:14:37.221Z,15.45
2022-09-03T03:15:37.177Z,15.39
2022-09-03T03:16:37.163Z,15.37
2022-09-03T03:17:37.090Z,15.37
2022-09-03T03:18:37.049Z,15.33
2022-09-03T03:19:37.002Z,15.37
2022-09-03T03:20:36.959Z,15.36
2022-09-03T03:21:36.911Z,15.39
2022-09-03T03:22:36.870Z,15.35
2022-09-03T03:23:36.829Z,15.29
2022-09-03T03:24:36.782Z,15.27
2022-09-03T03:25:36.734Z,15.29
2022-09-03T03:26:36.697Z,15.22
2022-09-03T03:27:36.645Z,15.14
2022-09-03T03:28:36.607Z,15.19
2022-09-03T03:29:36.558Z,15.23
2022-09-03T03:30:36.543Z,15.22
2022-09-03T03:31:36.469Z,15.18
2022-09-03T03:32:36.630Z,15.12
2022-09-03T03:33:36.382Z,15.15
2022-09-03T03:34:36.338Z,15.14
2022-09-03T03:35:36.297Z,15.12
2022-09-03T03:36:36.252Z,15.22
2022-09-03T03:37:36.204Z,15.08
2022-09-03T03:38:36.166Z,15.12
2022-09-03T03:39:36.161Z,15.11
2022-09-03T03:40:36.078Z,15.14
2022-09-03T03:41:36.030Z,15.10
2022-09-03T03:42:35.990Z,15.05
2022-09-03T03:43:35.952Z,15.10
2022-09-03T03:44:35.897Z,15.11
2022-09-03T03:45:35.943Z,15.11
2022-09-03T03:46:35.808Z,15.08
2022-09-03T03:47:35.761Z,15.07
2022-09-03T03:48:35.720Z,15.02
2022-09-03T03:49:35.676Z,14.99
2022-09-03T03:50:35.633Z,15.02
2022-09-03T03:51:35.586Z,15.02
2022-09-03T03:52:35.543Z,15.04
2022-09-03T03:53:35.497Z,15.00
2022-09-03T03:54:35.454Z,15.00
2022-09-03T03:55:35.442Z,15.02
2022-09-03T03:56:35.368Z,15.04
2022-09-03T03:57:35.325Z,14.93
2022-09-03T03:58:35.279Z,14.97
2022-09-03T03:59:35.233Z,15.00
2022-09-03T04:00:35.192Z,14.97
2022-09-03T04:01:35.228Z,14.94
2022-09-03T04:02:39.042Z,15.00
2022-09-03T04:03:35.056Z,14.96
2022-09-03T04:04:35.022Z,14.89
2022-09-03T04:05:34.966Z,14.96
2022-09-03T04:06:35.123Z,14.96
2022-09-03T04:07:34.888Z,14.93
2022-09-03T04:08:34.835Z,14.94
2022-09-03T04:09:34.791Z,14.92
2022-09-03T04:10:34.750Z,14.89
2022-09-03T04:11:34.700Z,14.90
2022-09-03T04:12:34.659Z,14.90
2022-09-03T04:13:34.615Z,14.82
2022-09-03T04:14:34.568Z,14.86
2022-09-03T04:15:34.526Z,14.86
2022-09-03T04:16:34.566Z,14.86
2022-09-03T04:17:34.437Z,14.86
2022-09-03T04:18:34.391Z,14.87
2022-09-03T04:19:34.349Z,14.79
2022-09-03T04:20:34.302Z,14.81
2022-09-03T04:21:34.257Z,14.86
2022-09-03T04:22:34.213Z,14.79
2022-09-03T04:23:34.189Z,14.81
2022-09-03T04:24:34.124Z,14.90
2022-09-03T04:25:34.079Z,14.86
2022-09-03T04:26:34.043Z,14.82
2022-09-03T04:27:33.995Z,14.87
2022-09-03T04:28:33.959Z,14.86
2022-09-03T04:29:33.904Z,14.87
2022-09-03T04:30:33.956Z,14.89
2022-09-03T04:31:33.818Z,14.78
2022-09-03T04:32:33.771Z,14.77
2022-09-03T04:33:33.726Z,14.77
2022-09-03T04:34:33.682Z,14.86
2022-09-03T04:35:33.679Z,14.79
2022-09-03T04:36:33.796Z,14.70
2022-09-03T04:37:33.750Z,14.70
2022-09-03T04:38:33.503Z,14.82
2022-09-03T04:39:33.525Z,14.74
2022-09-03T04:40:33.414Z,14.82
2022-09-03T04:41:33.379Z,14.81
2022-09-03T04:42:33.325Z,14.79
2022-09-03T04:43:33.288Z,14.68
2022-09-03T04:44:33.261Z,14.71
2022-09-03T04:45:33.246Z,14.87
2022-09-03T04:46:33.305Z,14.85
2022-09-03T04:47:33.105Z,14.82
2022-09-03T04:48:33.059Z,14.67
2022-09-03T04:49:33.220Z,14.79
2022-09-03T04:50:32.970Z,14.68
2022-09-03T04:51:32.931Z,14.82
2022-09-03T04:52:32.883Z,14.82
2022-09-03T04:53:32.844Z,14.66
2022-09-03T04:54:32.796Z,14.79
2022-09-03T04:55:32.755Z,14.82
2022-09-03T04:56:32.706Z,14.81
2022-09-03T04:57:32.664Z,14.77
2022-09-03T04:58:32.619Z,14.78
2022-09-03T04:59:32.573Z,14.82
2022-09-03T05:00:32.530Z,14.66
2022-09-03T05:01:32.604Z,14.77
2022-09-03T05:02:32.476Z,14.77
2022-09-03T05:03:32.396Z,14.74
2022-09-03T05:04:32.349Z,14.78
2022-09-03T05:05:32.307Z,14.81
2022-09-03T05:06:32.264Z,14.81
2022-09-03T05:07:32.220Z,14.77
2022-09-03T05:08:32.174Z,14.77
2022-09-03T05:09:32.132Z,14.78
2022-09-03T05:10:32.086Z,14.86
2022-09-03T05:11:32.043Z,14.79
2022-09-03T05:12:32.004Z,14.71
2022-09-03T05:13:31.958Z,14.62
2022-09-03T05:14:31.908Z,14.79
2022-09-03T05:15:31.863Z,14.78
2022-09-03T05:16:31.857Z,14.71
2022-09-03T05:17:34.098Z,14.82
2022-09-03T05:18:31.732Z,14.74
2022-09-03T05:19:31.690Z,14.77
2022-09-03T05:20:31.642Z,14.79
2022-09-03T05:21:31.599Z,14.78
2022-09-03T05:22:31.559Z,14.78
2022-09-03T05:23:35.633Z,14.78
2022-09-03T05:24:31.467Z,14.85
2022-09-03T05:25:31.418Z,14.85
2022-09-03T05:26:31.383Z,14.82
2022-09-03T05:27:31.335Z,14.67
2022-09-03T05:28:31.284Z,14.77
2022-09-03T05:29:31.242Z,14.89
2022-09-03T05:30:31.198Z,14.79
2022-09-03T05:31:31.212Z,14.73
2022-09-03T05:32:31.112Z,14.78
2022-09-03T05:33:31.066Z,14.82
2022-09-03T05:34:31.017Z,14.78
2022-09-03T05:35:30.996Z,14.86
2022-09-03T05:36:30.933Z,14.79
2022-09-03T05:37:30.885Z,14.85
2022-09-03T05:38:30.852Z,14.85
2022-09-03T05:39:30.844Z,14.87
2022-09-03T05:40:30.754Z,14.90
2022-09-03T05:41:30.720Z,14.97
2022-09-03T05:42:30.667Z,14.99
2022-09-03T05:43:30.624Z,15.00
2022-09-03T05:44:30.579Z,14.97
2022-09-03T05:45:30.555Z,15.02
2022-09-03T05:46:30.487Z,15.07
2022-09-03T05:47:30.443Z,14.97
2022-09-03T05:48:30.401Z,15.02
2022-09-03T05:49:30.358Z,15.07
2022-09-03T05:50:30.308Z,15.10
2022-09-03T05:51:30.274Z,15.19
2022-09-03T05:52:30.221Z,15.17
2022-09-03T05:53:30.181Z,15.23
2022-09-03T05:54:30.131Z,15.27
2022-09-03T05:55:30.090Z,15.19
2022-09-03T05:56:30.248Z,15.33
2022-09-03T05:57:29.999Z,15.30
2022-09-03T05:58:29.956Z,15.36
2022-09-03T05:59:29.920Z,15.44
2022-09-03T06:00:29.879Z,15.41
2022-09-03T06:01:29.833Z,15.54
2022-09-03T06:02:30.077Z,15.55
2022-09-03T06:03:29.973Z,15.54
2022-09-03T06:04:29.703Z,15.57
2022-09-03T06:05:29.646Z,15.63
2022-09-03T06:06:29.612Z,15.63
2022-09-03T06:07:29.567Z,15.62
2022-09-03T06:11:01.121Z,15.76
2022-09-03T06:12:04.000Z,15.78
2022-09-03T06:13:01.031Z,15.85
2022-09-03T06:14:00.985Z,15.81
2022-09-03T06:15:00.950Z,15.88
2022-09-03T06:16:00.940Z,15.94
2022-09-03T06:17:00.891Z,15.94
2022-09-03T06:18:00.811Z,16.02
2022-09-03T06:19:00.917Z,16.05
2022-09-03T06:20:00.721Z,16.10
2022-09-03T06:21:00.680Z,16.16
2022-09-03T06:22:00.636Z,16.25
2022-09-03T06:23:00.795Z,16.24
2022-09-03T06:24:00.544Z,16.13
2022-09-03T06:25:00.503Z,16.26
2022-09-03T06:26:04.939Z,16.28
2022-09-03T06:27:00.419Z,16.25
2022-09-03T06:28:00.381Z,16.41
2022-09-03T06:29:00.330Z,16.40
2022-09-03T06:30:00.286Z,16.43
2022-09-03T06:31:00.242Z,16.46
2022-09-03T06:32:00.261Z,16.49
2022-09-03T06:33:00.154Z,16.49
2022-09-03T06:34:04.014Z,16.51
2022-09-03T06:35:00.064Z,16.58
2022-09-03T06:36:00.019Z,16.55
2022-09-03T06:36:59.981Z,16.72
2022-09-03T06:38:02.956Z,16.76
2022-09-03T06:38:59.889Z,16.84
2022-09-03T06:39:59.890Z,16.82
2022-09-03T06:40:59.802Z,16.87
2022-09-03T06:41:59.761Z,16.92
2022-09-03T06:42:59.718Z,16.92
2022-09-03T06:43:59.671Z,17.01
2022-09-03T06:44:59.627Z,17.02
2022-09-03T06:46:43.079Z,17.12
2022-09-03T06:47:44.143Z,17.17
2022-09-03T06:48:42.885Z,17.19
2022-09-03T06:49:42.841Z,17.27
2022-09-03T06:50:42.797Z,17.34
2022-09-03T06:51:42.765Z,17.30
2022-09-03T06:52:42.707Z,17.34
2022-09-03T06:53:42.674Z,17.42
2022-09-03T06:54:42.627Z,17.39
2022-09-03T06:55:42.595Z,17.52
2022-09-03T06:56:42.535Z,17.46
2022-09-03T06:57:42.490Z,17.50
2022-09-03T06:58:42.449Z,17.52
2022-09-03T06:59:42.405Z,17.68
2022-09-03T07:00:42.467Z,17.63
2022-09-03T07:01:44.285Z,17.76
2022-09-03T07:02:44.940Z,17.82
2022-09-03T07:03:42.241Z,17.80
2022-09-03T07:04:42.187Z,17.87
2022-09-03T07:05:42.148Z,17.93
2022-09-03T07:06:42.147Z,17.91
2022-09-03T07:07:42.054Z,17.95
2022-09-03T07:08:42.013Z,18.00
2022-09-03T07:09:45.165Z,18.18
2022-09-03T07:10:41.934Z,18.06
2022-09-03T07:11:41.880Z,18.13
2022-09-03T07:12:41.848Z,18.28
2022-09-03T07:13:41.795Z,18.33
2022-09-03T07:14:41.957Z,18.34
2022-09-03T07:15:41.713Z,18.36
2022-09-03T07:16:41.788Z,18.43
2022-09-03T07:17:41.623Z,18.48
2022-09-03T07:18:41.582Z,18.58
2022-09-03T07:19:41.538Z,18.60
2022-09-03T07:20:41.496Z,18.57
2022-09-03T07:21:45.237Z,18.71
2022-09-03T07:22:41.410Z,18.74
2022-09-03T07:23:41.378Z,18.76
2022-09-03T07:24:41.328Z,18.88
2022-09-03T07:25:41.289Z,18.83
2022-09-03T07:26:41.239Z,18.86
2022-09-03T07:27:41.197Z,18.98
2022-09-03T07:28:41.156Z,19.04
2022-09-03T07:29:41.108Z,19.01
2022-09-03T07:30:41.067Z,19.11
2022-09-03T07:31:41.158Z,19.15
2022-09-03T07:32:40.993Z,19.20
2022-09-03T07:33:40.944Z,19.19
2022-09-03T07:34:40.896Z,19.37
2022-09-03T07:35:40.876Z,19.39
2022-09-03T07:36:40.817Z,19.45
2022-09-03T07:37:40.784Z,19.45
2022-09-03T07:38:40.738Z,19.52
2022-09-03T07:39:40.762Z,19.56
2022-09-03T07:40:40.641Z,19.55
2022-09-03T07:41:40.597Z,19.70
2022-09-03T07:42:40.554Z,19.72
2022-09-03T07:43:40.511Z,19.72
2022-09-03T07:44:40.471Z,19.82
2022-09-03T07:45:40.432Z,19.84
2022-09-03T07:46:40.470Z,19.90
2022-09-03T07:47:40.343Z,19.89
2022-09-03T07:48:40.301Z,19.99
2022-09-03T07:51:08.704Z,20.07
2022-09-03T07:52:08.659Z,20.11
2022-09-03T07:53:08.613Z,20.27
2022-09-03T07:54:08.566Z,20.21
2022-09-03T07:55:08.527Z,20.36
2022-09-03T07:56:08.482Z,20.30
2022-09-03T07:57:08.444Z,20.33
2022-09-03T07:58:08.394Z,20.44
2022-09-03T07:59:08.359Z,20.50
2022-09-03T08:00:08.316Z,20.50
2022-09-03T08:01:08.988Z,20.53
2022-09-03T08:02:08.230Z,20.55
2022-09-03T08:03:08.182Z,20.63
2022-09-03T08:04:09.820Z,20.74
2022-09-03T08:05:08.101Z,20.82
2022-09-03T08:06:08.055Z,20.80
2022-09-03T08:07:08.024Z,20.86
2022-09-03T08:08:07.963Z,20.96
2022-09-03T08:09:07.926Z,20.98
2022-09-03T08:10:07.885Z,21.10
2022-09-03T08:11:07.834Z,21.15
2022-09-03T08:12:07.792Z,21.22
2022-09-03T08:13:07.747Z,21.23
2022-09-03T08:14:07.708Z,21.33
2022-09-03T08:15:07.671Z,21.37
2022-09-03T08:16:07.670Z,21.35
2022-09-03T08:17:07.580Z,21.37
2022-09-03T08:18:07.554Z,21.40
2022-09-03T08:19:07.649Z,21.51
2022-09-03T08:20:07.444Z,21.47
2022-09-03T08:21:07.411Z,21.59
2022-09-03T08:22:07.357Z,21.62
2022-09-03T08:23:07.317Z,21.60
2022-09-03T08:24:07.282Z,21.69
2022-09-03T08:25:07.236Z,21.72
2022-09-03T08:26:07.186Z,21.80
2022-09-03T08:27:07.148Z,21.91
2022-09-03T08:28:07.099Z,21.96
2022-09-03T08:29:07.064Z,21.92
2022-09-03T08:30:07.015Z,22.01
2022-09-03T08:31:07.066Z,22.00
2022-09-03T08:32:06.929Z,22.07
2022-09-03T08:33:06.901Z,22.23
2022-09-03T08:34:07.209Z,22.23
2022-09-03T08:35:06.803Z,22.23
2022-09-03T08:36:06.759Z,22.28
2022-09-03T08:37:06.727Z,22.31
2022-09-03T08:38:06.678Z,22.43
2022-09-03T08:39:06.647Z,22.37
2022-09-03T08:40:06.594Z,22.51
2022-09-03T08:41:06.544Z,22.52
2022-09-03T08:42:06.503Z,22.55
2022-09-03T08:43:06.966Z,22.61
2022-09-03T08:44:06.420Z,22.67
2022-09-03T08:45:06.389Z,22.67
2022-09-03T08:46:06.407Z,22.78
2022-09-03T08:47:06.299Z,22.81
2022-09-03T08:48:06.255Z,22.89
2022-09-03T08:49:06.209Z,22.96
2022-09-03T08:50:06.157Z,23.01
2022-09-03T08:51:06.125Z,22.99
2022-09-03T08:52:06.075Z,23.07
2022-09-03T08:53:06.037Z,23.13
2022-09-03T08:54:06.007Z,23.29
2022-09-03T08:55:05.948Z,23.25
2022-09-03T08:56:05.903Z,23.36
2022-09-03T08:57:05.868Z,23.40
2022-09-03T08:58:05.823Z,23.40
2022-09-03T08:59:05.780Z,23.42
2022-09-03T09:00:05.740Z,23.52
2022-09-03T09:01:05.710Z,23.56
2022-09-03T09:02:05.838Z,23.59
2022-09-03T09:03:05.708Z,23.64
2022-09-03T09:04:05.569Z,23.71
2022-09-03T09:05:06.029Z,23.73
2022-09-03T09:06:05.482Z,23.82
2022-09-03T09:07:05.457Z,23.85
2022-09-03T09:08:05.398Z,23.88
2022-09-03T09:09:05.369Z,23.96
2022-09-03T09:10:05.314Z,24.07
2022-09-03T09:11:05.285Z,24.11
2022-09-03T09:12:05.233Z,24.14
2022-09-03T09:13:05.188Z,24.22
2022-09-03T09:14:05.149Z,24.24
2022-09-03T09:15:05.132Z,24.34
2022-09-03T09:16:05.201Z,24.34
2022-09-03T09:17:05.028Z,24.28
2022-09-03T09:18:04.978Z,24.38
2022-09-03T09:19:04.942Z,24.44
2022-09-03T09:20:04.902Z,24.50
2022-09-03T09:21:04.858Z,24.53
2022-09-03T09:22:04.808Z,24.53
2022-09-03T09:23:04.776Z,24.63
2022-09-03T09:24:04.727Z,24.69
2022-09-03T09:25:04.688Z,24.69
2022-09-03T09:26:04.640Z,24.81
2022-09-03T09:27:04.607Z,24.89
2022-09-03T09:28:04.564Z,24.94
2022-09-03T09:29:04.546Z,24.96
2022-09-03T09:30:04.491Z,25.04
2022-09-03T09:31:04.551Z,25.00
2022-09-03T09:32:04.424Z,25.04
2022-09-03T09:33:04.361Z,25.15
2022-09-03T09:34:04.527Z,25.19
2022-09-03T09:35:04.271Z,25.22
2022-09-03T09:36:04.256Z,25.33
2022-09-03T09:37:04.188Z,25.33
2022-09-03T09:38:04.145Z,25.52
2022-09-03T09:39:04.313Z,25.49
2022-09-03T09:40:04.124Z,25.49
2022-09-03T09:41:04.019Z,25.62
2022-09-03T09:42:03.971Z,25.68
2022-09-03T09:43:03.972Z,25.67
2022-09-03T09:44:03.897Z,25.70
2022-09-03T09:45:03.856Z,25.70
2022-09-03T09:46:03.837Z,25.74
2022-09-03T09:47:03.786Z,25.74
2022-09-03T09:48:03.724Z,25.78
2022-09-03T09:49:03.690Z,25.81
2022-09-03T09:50:03.855Z,25.80
2022-09-03T09:51:03.611Z,25.78
2022-09-03T09:52:03.557Z,25.83
2022-09-03T09:53:03.518Z,25.85
2022-09-03T09:54:03.678Z,25.88
2022-09-03T09:55:03.434Z,25.83
2022-09-03T09:56:03.398Z,25.91
2022-09-03T09:57:03.354Z,25.89
2022-09-03T09:58:03.319Z,25.92
2022-09-03T09:59:03.285Z,25.89
2022-09-03T10:00:03.226Z,26.01
2022-09-03T10:01:03.190Z,26.01
2022-09-03T10:02:03.237Z,25.89
2022-09-03T10:03:03.130Z,26.01
2022-09-03T10:04:03.060Z,26.06
2022-09-03T10:05:03.032Z,25.99
2022-09-03T10:06:02.979Z,26.01
2022-09-03T10:07:02.950Z,26.03
2022-09-03T10:08:02.901Z,26.01
2022-09-03T10:09:02.857Z,25.99
2022-09-03T10:10:02.812Z,26.10
2022-09-03T10:11:02.774Z,26.13
2022-09-03T10:12:02.732Z,26.07
2022-09-03T10:13:02.691Z,25.99
2022-09-03T10:14:02.649Z,26.15
2022-09-03T10:15:02.609Z,26.15
2022-09-03T10:16:02.615Z,26.23
2022-09-03T10:17:02.525Z,26.27
2022-09-03T10:18:02.483Z,26.39
2022-09-03T10:19:02.444Z,26.48
2022-09-03T10:20:02.399Z,26.59
2022-09-03T10:21:02.404Z,26.66
2022-09-03T10:22:02.317Z,26.67
2022-09-03T10:23:02.278Z,26.71
2022-09-03T10:24:07.159Z,26.78
2022-09-03T10:25:02.197Z,26.88
2022-09-03T10:26:02.157Z,26.97
2022-09-03T10:27:02.114Z,27.01
2022-09-03T10:28:02.088Z,27.01
2022-09-03T10:29:02.033Z,27.00
2022-09-03T10:30:01.988Z,27.15
2022-09-03T10:31:02.013Z,27.08
2022-09-03T10:32:01.907Z,27.19
2022-09-03T10:33:01.869Z,27.18
2022-09-03T10:34:01.828Z,27.15
2022-09-03T10:35:01.785Z,27.19
2022-09-03T10:36:01.743Z,27.20
2022-09-03T10:37:01.706Z,27.28
2022-09-03T10:38:01.663Z,27.34
2022-09-03T10:39:01.622Z,27.37
2022-09-03T10:40:01.661Z,27.37
2022-09-03T10:41:01.541Z,27.50
2022-09-03T10:42:01.501Z,27.40
2022-09-03T10:43:01.463Z,27.50
2022-09-03T10:44:01.415Z,27.52
2022-09-03T10:45:01.378Z,27.50
2022-09-03T10:46:01.390Z,27.60
2022-09-03T10:47:01.299Z,27.58
2022-09-03T10:48:01.256Z,27.57
2022-09-03T10:49:01.222Z,27.66
2022-09-03T10:50:01.174Z,27.78
2022-09-03T10:51:01.133Z,27.91
2022-09-03T10:52:01.092Z,27.97
2022-09-03T10:53:01.053Z,27.85
2022-09-03T10:54:01.009Z,27.98
2022-09-03T10:55:00.970Z,27.97
2022-09-03T10:56:00.928Z,28.03
2022-09-03T10:57:00.889Z,28.04
2022-09-03T10:58:00.884Z,28.03
2022-09-03T10:59:00.808Z,28.19
2022-09-03T11:00:00.767Z,28.19
2022-09-03T11:01:00.791Z,28.15
2022-09-03T11:02:00.686Z,28.18
2022-09-03T11:03:00.682Z,28.22
2022-09-03T11:04:00.605Z,28.25
2022-09-03T11:05:00.570Z,28.23
2022-09-03T11:06:00.522Z,28.23
2022-09-03T11:07:00.484Z,28.27
2022-09-03T11:08:00.444Z,28.28
2022-09-03T11:09:05.842Z,28.28
2022-09-03T11:10:00.362Z,28.25
2022-09-03T11:12:00.281Z,28.37
2022-09-03T11:13:00.242Z,28.43
2022-09-03T11:14:00.203Z,28.41
2022-09-03T11:15:00.159Z,28.57
2022-09-03T11:16:00.300Z,28.50
2022-09-03T11:17:00.080Z,28.67
2022-09-03T11:18:00.049Z,28.60
2022-09-03T11:18:59.998Z,28.64
2022-09-03T11:19:59.961Z,28.59
2022-09-03T11:20:59.919Z,28.60
2022-09-03T11:21:59.878Z,28.60
2022-09-03T11:22:59.838Z,28.67
2022-09-03T11:23:59.806Z,28.70
2022-09-03T11:24:59.759Z,28.74
2022-09-03T11:25:59.718Z,28.83
2022-09-03T11:26:59.677Z,28.82
2022-09-03T11:27:59.643Z,28.78
2022-09-03T11:28:59.598Z,28.89
2022-09-03T11:29:59.560Z,28.92
2022-09-03T11:30:59.597Z,28.92
2022-09-03T11:31:59.480Z,29.15
2022-09-03T11:32:59.437Z,29.06
2022-09-03T11:33:59.399Z,29.16
2022-09-03T11:34:59.361Z,29.24
2022-09-03T11:35:59.320Z,29.25
2022-09-03T11:36:59.278Z,29.31
2022-09-03T11:37:59.237Z,29.40
2022-09-03T11:38:59.197Z,29.50
2022-09-03T11:39:59.210Z,29.57
2022-09-03T11:40:59.156Z,29.58
2022-09-03T11:41:59.083Z,29.61
2022-09-03T11:42:59.038Z,29.64
2022-09-03T11:44:02.546Z,29.77
2022-09-03T11:44:58.959Z,29.73
2022-09-03T11:45:58.995Z,29.86
2022-09-03T11:46:58.882Z,29.90
2022-09-03T11:47:58.843Z,29.98
2022-09-03T11:48:58.806Z,29.98
2022-09-03T11:49:58.764Z,30.02
2022-09-03T11:50:58.720Z,30.05
2022-09-03T11:51:58.683Z,30.13
2022-09-03T11:52:58.642Z,30.14
2022-09-03T11:53:58.602Z,30.11
2022-09-03T11:54:58.565Z,30.21
2022-09-03T11:55:58.524Z,30.24
2022-09-03T11:56:58.486Z,30.17
2022-09-03T11:57:58.449Z,30.20
2022-09-03T11:58:58.405Z,30.35
2022-09-03T11:59:58.370Z,30.43
2022-09-03T12:00:58.327Z,30.52
2022-09-03T12:01:58.291Z,30.54
2022-09-03T12:02:59.269Z,30.61
2022-09-03T12:03:58.212Z,30.62
2022-09-03T12:04:58.301Z,30.71
2022-09-03T12:05:58.133Z,30.74
2022-09-03T12:06:58.094Z,30.89
2022-09-03T12:07:58.052Z,30.95
2022-09-03T12:08:58.219Z,30.98
2022-09-03T12:09:57.972Z,31.08
2022-09-03T12:10:57.939Z,31.18
2022-09-03T12:11:57.897Z,31.20
2022-09-03T12:12:57.859Z,31.39
2022-09-03T12:13:57.818Z,31.37
2022-09-03T12:14:57.781Z,31.55
2022-09-03T12:15:57.770Z,31.72
2022-09-03T12:16:57.705Z,31.86
2022-09-03T12:17:57.866Z,31.98
2022-09-03T12:18:57.627Z,31.98
2022-09-03T12:19:57.586Z,32.05
2022-09-03T12:20:57.554Z,31.97
2022-09-03T12:21:57.515Z,31.98
2022-09-03T12:22:57.479Z,32.07
2022-09-03T12:23:58.387Z,31.97
2022-09-03T12:24:57.394Z,32.07
2022-09-03T12:25:57.354Z,32.05
2022-09-03T12:26:57.317Z,32.17
2022-09-03T12:27:57.277Z,32.27
2022-09-03T12:28:57.240Z,32.41
2022-09-03T12:29:57.200Z,32.61
2022-09-03T12:30:57.290Z,32.86
2022-09-03T12:31:57.125Z,33.08
2022-09-03T12:32:57.087Z,33.35
2022-09-03T12:33:57.046Z,33.76
2022-09-03T12:34:57.011Z,34.02
2022-09-03T12:35:58.935Z,34.16
2022-09-03T12:36:56.934Z,34.33
2022-09-03T12:38:06.328Z,34.47
2022-09-03T12:39:13.250Z,34.58
2022-09-03T12:40:05.943Z,34.75
2022-09-03T12:41:56.742Z,34.58
2022-09-03T12:43:37.123Z,34.58
2022-09-03T12:43:56.666Z,34.59
2022-09-03T12:44:56.631Z,34.38
2022-09-03T12:46:11.982Z,34.14
2022-09-03T12:47:33.452Z,33.97
2022-09-03T12:47:56.572Z,33.77
2022-09-03T12:49:56.439Z,33.75
2022-09-03T12:50:56.932Z,33.67
2022-09-03T12:51:59.737Z,33.31
2022-09-03T12:52:56.324Z,33.05
2022-09-03T12:53:56.282Z,32.83
2022-09-03T12:54:56.244Z,33.00
2022-09-03T12:55:56.210Z,33.26
2022-09-03T12:56:56.172Z,33.66
2022-09-03T12:57:57.757Z,33.89
2022-09-03T12:58:56.093Z,33.84
2022-09-03T12:59:56.053Z,33.63
2022-09-03T13:00:56.048Z,33.39